Terminal Aerodrome Forecast
Issued by NWS

Home | Current Version | Previous Version | Text Only | Print | Product List | Glossary On
Versions: 1 2 3 4 5 6 7 8 9 10 11 12 13 14 15 16 17 18
000
FTUS43 KPAH 262300
TAFCGI
TAF
KCGI 262332Z 2700/2724 22005KT P6SM SCT025
     FM270600 31007KT P6SM SCT025 BKN030
     FM271500 34009KT P6SM BKN030=

USA.gov is the U.S. government's official web portal to all federal, state and local government web resources and services.